sensor_id;sensor_type;location;lat;lon;timestamp;P1;durP1;ratioP1;P2;durP2;ratioP2
41514;SDS011;27247;48.020;16.720;2023-07-20T00:02:03;11.03;;;4.33;;
41514;SDS011;27247;48.020;16.720;2023-07-20T00:06:15;9.80;;;4.45;;
41514;SDS011;27247;48.020;16.720;2023-07-20T00:10:25;8.30;;;4.50;;
41514;SDS011;27247;48.020;16.720;2023-07-20T00:14:35;5.93;;;3.97;;
41514;SDS011;27247;48.020;16.720;2023-07-20T00:18:46;6.43;;;4.47;;
41514;SDS011;27247;48.020;16.720;2023-07-20T00:22:57;9.00;;;4.63;;
41514;SDS011;27247;48.020;16.720;2023-07-20T00:27:07;9.93;;;4.60;;
41514;SDS011;27247;48.020;16.720;2023-07-20T00:31:18;6.38;;;3.80;;
41514;SDS011;27247;48.020;16.720;2023-07-20T00:35:28;5.40;;;3.97;;
41514;SDS011;27247;48.020;16.720;2023-07-20T00:39:39;9.68;;;4.35;;
41514;SDS011;27247;48.020;16.720;2023-07-20T00:43:49;9.23;;;4.33;;
41514;SDS011;27247;48.020;16.720;2023-07-20T00:48:04;8.52;;;4.45;;
41514;SDS011;27247;48.020;16.720;2023-07-20T00:52:16;8.60;;;4.53;;
41514;SDS011;27247;48.020;16.720;2023-07-20T00:56:30;7.43;;;4.47;;
41514;SDS011;27247;48.020;16.720;2023-07-20T01:00:40;6.65;;;4.47;;
41514;SDS011;27247;48.020;16.720;2023-07-20T01:04:51;6.25;;;4.35;;
41514;SDS011;27247;48.020;16.720;2023-07-20T01:09:10;7.03;;;4.00;;
41514;SDS011;27247;48.020;16.720;2023-07-20T01:13:24;8.55;;;4.35;;
41514;SDS011;27247;48.020;16.720;2023-07-20T01:17:36;9.40;;;5.15;;
41514;SDS011;27247;48.020;16.720;2023-07-20T01:22:01;8.30;;;4.63;;
41514;SDS011;27247;48.020;16.720;2023-07-20T01:35:10;9.73;;;4.57;;
41514;SDS011;27247;48.020;16.720;2023-07-20T01:39:24;10.50;;;4.97;;
41514;SDS011;27247;48.020;16.720;2023-07-20T01:43:35;6.43;;;4.43;;
41514;SDS011;27247;48.020;16.720;2023-07-20T01:47:45;9.40;;;5.35;;
41514;SDS011;27247;48.020;16.720;2023-07-20T01:51:56;9.63;;;4.83;;
41514;SDS011;27247;48.020;16.720;2023-07-20T01:56:06;9.20;;;5.10;;
41514;SDS011;27247;48.020;16.720;2023-07-20T02:00:16;7.90;;;4.57;;
41514;SDS011;27247;48.020;16.720;2023-07-20T02:04:29;7.05;;;4.68;;
41514;SDS011;27247;48.020;16.720;2023-07-20T02:08:39;6.82;;;4.80;;
41514;SDS011;27247;48.020;16.720;2023-07-20T02:12:49;6.47;;;4.97;;
41514;SDS011;27247;48.020;16.720;2023-07-20T02:17:00;10.35;;;5.47;;
41514;SDS011;27247;48.020;16.720;2023-07-20T02:21:11;8.55;;;5.25;;
41514;SDS011;27247;48.020;16.720;2023-07-20T02:25:21;9.57;;;5.77;;
41514;SDS011;27247;48.020;16.720;2023-07-20T02:29:31;6.72;;;4.97;;
41514;SDS011;27247;48.020;16.720;2023-07-20T02:33:42;8.87;;;5.30;;
41514;SDS011;27247;48.020;16.720;2023-07-20T02:37:52;6.73;;;5.00;;
41514;SDS011;27247;48.020;16.720;2023-07-20T02:42:03;7.53;;;4.93;;
41514;SDS011;27247;48.020;16.720;2023-07-20T02:46:14;8.95;;;4.82;;
41514;SDS011;27247;48.020;16.720;2023-07-20T02:50:25;8.25;;;4.95;;
41514;SDS011;27247;48.020;16.720;2023-07-20T02:54:35;7.07;;;4.60;;
41514;SDS011;27247;48.020;16.720;2023-07-20T02:58:45;11.70;;;5.30;;
41514;SDS011;27247;48.020;16.720;2023-07-20T03:02:56;8.70;;;5.70;;
41514;SDS011;27247;48.020;16.720;2023-07-20T03:07:06;9.37;;;5.20;;
41514;SDS011;27247;48.020;16.720;2023-07-20T03:11:18;9.88;;;5.43;;
41514;SDS011;27247;48.020;16.720;2023-07-20T03:15:29;6.53;;;4.38;;
41514;SDS011;27247;48.020;16.720;2023-07-20T03:19:41;10.18;;;4.97;;
41514;SDS011;27247;48.020;16.720;2023-07-20T03:23:51;10.50;;;5.57;;
41514;SDS011;27247;48.020;16.720;2023-07-20T03:28:02;11.47;;;5.20;;
41514;SDS011;27247;48.020;16.720;2023-07-20T03:32:12;8.70;;;4.60;;
41514;SDS011;27247;48.020;16.720;2023-07-20T03:36:22;7.50;;;5.17;;
41514;SDS011;27247;48.020;16.720;2023-07-20T03:40:32;7.25;;;5.35;;
41514;SDS011;27247;48.020;16.720;2023-07-20T03:44:43;9.20;;;5.30;;
41514;SDS011;27247;48.020;16.720;2023-07-20T03:48:53;7.50;;;5.00;;
41514;SDS011;27247;48.020;16.720;2023-07-20T03:53:03;7.77;;;5.03;;
41514;SDS011;27247;48.020;16.720;2023-07-20T03:57:14;7.57;;;5.03;;
41514;SDS011;27247;48.020;16.720;2023-07-20T04:01:24;10.70;;;4.88;;
41514;SDS011;27247;48.020;16.720;2023-07-20T04:05:34;9.00;;;4.93;;
41514;SDS011;27247;48.020;16.720;2023-07-20T04:09:45;7.67;;;5.07;;
41514;SDS011;27247;48.020;16.720;2023-07-20T04:13:55;7.63;;;4.60;;
41514;SDS011;27247;48.020;16.720;2023-07-20T04:18:06;10.23;;;4.75;;
41514;SDS011;27247;48.020;16.720;2023-07-20T04:22:16;8.37;;;4.87;;
41514;SDS011;27247;48.020;16.720;2023-07-20T04:26:26;7.87;;;4.73;;
41514;SDS011;27247;48.020;16.720;2023-07-20T04:30:37;6.33;;;3.90;;
41514;SDS011;27247;48.020;16.720;2023-07-20T04:34:49;7.95;;;4.60;;
41514;SDS011;27247;48.020;16.720;2023-07-20T04:39:00;15.07;;;4.43;;
41514;SDS011;27247;48.020;16.720;2023-07-20T04:43:10;9.02;;;4.22;;
41514;SDS011;27247;48.020;16.720;2023-07-20T04:47:20;10.53;;;4.87;;
41514;SDS011;27247;48.020;16.720;2023-07-20T04:51:31;8.67;;;4.40;;
41514;SDS011;27247;48.020;16.720;2023-07-20T04:55:46;8.32;;;4.45;;
41514;SDS011;27247;48.020;16.720;2023-07-20T05:00:00;6.78;;;4.03;;
41514;SDS011;27247;48.020;16.720;2023-07-20T05:04:10;9.95;;;4.65;;
41514;SDS011;27247;48.020;16.720;2023-07-20T05:08:21;6.75;;;3.95;;
41514;SDS011;27247;48.020;16.720;2023-07-20T05:12:34;7.13;;;3.85;;
41514;SDS011;27247;48.020;16.720;2023-07-20T05:16:44;10.18;;;4.30;;
41514;SDS011;27247;48.020;16.720;2023-07-20T05:20:55;8.27;;;4.63;;
41514;SDS011;27247;48.020;16.720;2023-07-20T05:25:08;9.60;;;4.40;;
41514;SDS011;27247;48.020;16.720;2023-07-20T05:29:21;9.88;;;4.20;;
41514;SDS011;27247;48.020;16.720;2023-07-20T05:33:31;9.65;;;4.20;;
41514;SDS011;27247;48.020;16.720;2023-07-20T05:37:42;8.23;;;4.13;;
41514;SDS011;27247;48.020;16.720;2023-07-20T05:41:52;9.03;;;4.80;;
41514;SDS011;27247;48.020;16.720;2023-07-20T05:46:02;7.50;;;4.28;;
41514;SDS011;27247;48.020;16.720;2023-07-20T05:50:14;10.30;;;4.35;;
41514;SDS011;27247;48.020;16.720;2023-07-20T05:54:24;5.95;;;4.57;;
41514;SDS011;27247;48.020;16.720;2023-07-20T05:58:36;10.32;;;4.60;;
41514;SDS011;27247;48.020;16.720;2023-07-20T06:02:46;7.97;;;5.13;;
41514;SDS011;27247;48.020;16.720;2023-07-20T06:06:57;6.25;;;4.03;;
41514;SDS011;27247;48.020;16.720;2023-07-20T06:11:08;7.20;;;4.00;;
41514;SDS011;27247;48.020;16.720;2023-07-20T06:15:25;9.53;;;4.60;;
41514;SDS011;27247;48.020;16.720;2023-07-20T06:19:35;10.57;;;4.25;;
41514;SDS011;27247;48.020;16.720;2023-07-20T06:23:46;10.52;;;4.35;;
41514;SDS011;27247;48.020;16.720;2023-07-20T06:27:57;15.73;;;4.60;;
41514;SDS011;27247;48.020;16.720;2023-07-20T06:32:07;8.43;;;4.20;;
41514;SDS011;27247;48.020;16.720;2023-07-20T06:36:18;7.82;;;4.10;;
41514;SDS011;27247;48.020;16.720;2023-07-20T06:40:28;7.72;;;4.03;;
41514;SDS011;27247;48.020;16.720;2023-07-20T06:44:39;6.00;;;3.67;;
41514;SDS011;27247;48.020;16.720;2023-07-20T06:48:49;5.90;;;4.22;;
41514;SDS011;27247;48.020;16.720;2023-07-20T06:53:00;9.13;;;4.10;;
41514;SDS011;27247;48.020;16.720;2023-07-20T06:57:13;8.00;;;4.45;;
41514;SDS011;27247;48.020;16.720;2023-07-20T07:01:23;6.07;;;4.13;;
41514;SDS011;27247;48.020;16.720;2023-07-20T07:05:37;11.90;;;3.75;;
41514;SDS011;27247;48.020;16.720;2023-07-20T07:09:47;5.15;;;3.25;;
41514;SDS011;27247;48.020;16.720;2023-07-20T07:13:58;11.07;;;4.18;;
41514;SDS011;27247;48.020;16.720;2023-07-20T07:18:08;7.93;;;3.43;;
41514;SDS011;27247;48.020;16.720;2023-07-20T07:22:18;8.55;;;4.63;;
41514;SDS011;27247;48.020;16.720;2023-07-20T07:26:29;6.23;;;4.40;;
41514;SDS011;27247;48.020;16.720;2023-07-20T07:30:39;8.20;;;4.50;;
41514;SDS011;27247;48.020;16.720;2023-07-20T07:34:49;7.90;;;4.18;;
41514;SDS011;27247;48.020;16.720;2023-07-20T07:39:00;9.70;;;4.47;;
41514;SDS011;27247;48.020;16.720;2023-07-20T07:43:10;7.60;;;4.47;;
41514;SDS011;27247;48.020;16.720;2023-07-20T07:47:21;25.05;;;5.40;;
41514;SDS011;27247;48.020;16.720;2023-07-20T07:51:32;6.70;;;4.40;;
41514;SDS011;27247;48.020;16.720;2023-07-20T07:55:42;5.63;;;4.20;;
41514;SDS011;27247;48.020;16.720;2023-07-20T07:59:52;6.67;;;4.30;;
41514;SDS011;27247;48.020;16.720;2023-07-20T08:04:03;9.33;;;4.07;;
41514;SDS011;27247;48.020;16.720;2023-07-20T08:08:13;7.97;;;3.90;;
41514;SDS011;27247;48.020;16.720;2023-07-20T08:12:24;5.17;;;4.07;;
41514;SDS011;27247;48.020;16.720;2023-07-20T08:16:34;7.72;;;4.40;;
41514;SDS011;27247;48.020;16.720;2023-07-20T08:20:45;8.70;;;3.90;;
41514;SDS011;27247;48.020;16.720;2023-07-20T08:24:55;8.07;;;4.07;;
41514;SDS011;27247;48.020;16.720;2023-07-20T08:29:06;6.60;;;3.87;;
41514;SDS011;27247;48.020;16.720;2023-07-20T08:33:17;8.23;;;3.87;;
41514;SDS011;27247;48.020;16.720;2023-07-20T08:37:29;5.07;;;3.65;;
41514;SDS011;27247;48.020;16.720;2023-07-20T08:41:42;22.63;;;5.10;;
41514;SDS011;27247;48.020;16.720;2023-07-20T08:45:56;6.50;;;4.40;;
41514;SDS011;27247;48.020;16.720;2023-07-20T08:50:07;6.60;;;3.92;;
41514;SDS011;27247;48.020;16.720;2023-07-20T08:54:18;6.80;;;3.97;;
41514;SDS011;27247;48.020;16.720;2023-07-20T08:58:28;9.07;;;4.00;;
41514;SDS011;27247;48.020;16.720;2023-07-20T09:02:39;10.63;;;3.75;;
41514;SDS011;27247;48.020;16.720;2023-07-20T09:06:52;4.72;;;3.60;;
41514;SDS011;27247;48.020;16.720;2023-07-20T09:11:02;7.78;;;3.80;;
41514;SDS011;27247;48.020;16.720;2023-07-20T09:15:13;7.68;;;4.28;;
41514;SDS011;27247;48.020;16.720;2023-07-20T09:19:24;8.27;;;4.18;;
41514;SDS011;27247;48.020;16.720;2023-07-20T09:23:35;6.03;;;4.22;;
41514;SDS011;27247;48.020;16.720;2023-07-20T09:27:48;7.82;;;4.25;;
41514;SDS011;27247;48.020;16.720;2023-07-20T09:36:10;9.20;;;4.60;;
41514;SDS011;27247;48.020;16.720;2023-07-20T09:40:21;8.32;;;3.92;;
41514;SDS011;27247;48.020;16.720;2023-07-20T09:44:31;6.75;;;4.15;;
41514;SDS011;27247;48.020;16.720;2023-07-20T09:48:42;9.70;;;4.03;;
41514;SDS011;27247;48.020;16.720;2023-07-20T09:53:02;6.40;;;3.33;;
41514;SDS011;27247;48.020;16.720;2023-07-20T09:57:12;6.57;;;3.70;;
41514;SDS011;27247;48.020;16.720;2023-07-20T10:01:24;11.65;;;4.45;;
41514;SDS011;27247;48.020;16.720;2023-07-20T10:05:39;8.15;;;3.90;;
41514;SDS011;27247;48.020;16.720;2023-07-20T10:09:53;9.15;;;3.67;;
41514;SDS011;27247;48.020;16.720;2023-07-20T10:14:07;9.13;;;3.72;;
41514;SDS011;27247;48.020;16.720;2023-07-20T10:23:00;8.50;;;3.72;;
41514;SDS011;27247;48.020;16.720;2023-07-20T10:27:11;6.15;;;3.78;;
41514;SDS011;27247;48.020;16.720;2023-07-20T10:31:22;8.10;;;3.83;;
41514;SDS011;27247;48.020;16.720;2023-07-20T10:35:53;4.95;;;4.38;;
41514;SDS011;27247;48.020;16.720;2023-07-20T10:40:26;7.95;;;4.10;;
41514;SDS011;27247;48.020;16.720;2023-07-20T10:44:44;6.05;;;3.63;;
41514;SDS011;27247;48.020;16.720;2023-07-20T10:49:02;6.43;;;3.40;;
41514;SDS011;27247;48.020;16.720;2023-07-20T10:53:14;7.90;;;3.65;;
41514;SDS011;27247;48.020;16.720;2023-07-20T10:57:30;6.47;;;3.53;;
41514;SDS011;27247;48.020;16.720;2023-07-20T11:01:41;9.07;;;3.25;;
41514;SDS011;27247;48.020;16.720;2023-07-20T11:05:53;19.00;;;4.20;;
41514;SDS011;27247;48.020;16.720;2023-07-20T11:10:13;7.00;;;3.80;;
41514;SDS011;27247;48.020;16.720;2023-07-20T11:14:25;10.10;;;3.38;;
41514;SDS011;27247;48.020;16.720;2023-07-20T11:18:36;7.82;;;3.30;;
41514;SDS011;27247;48.020;16.720;2023-07-20T11:22:49;6.60;;;2.80;;
41514;SDS011;27247;48.020;16.720;2023-07-20T11:27:04;4.07;;;2.40;;
41514;SDS011;27247;48.020;16.720;2023-07-20T11:31:15;8.00;;;2.80;;
41514;SDS011;27247;48.020;16.720;2023-07-20T11:35:28;5.90;;;2.63;;
41514;SDS011;27247;48.020;16.720;2023-07-20T11:39:38;9.20;;;3.00;;
41514;SDS011;27247;48.020;16.720;2023-07-20T11:43:49;5.20;;;2.38;;
41514;SDS011;27247;48.020;16.720;2023-07-20T11:48:00;2.73;;;2.40;;
41514;SDS011;27247;48.020;16.720;2023-07-20T11:52:11;5.45;;;2.67;;
41514;SDS011;27247;48.020;16.720;2023-07-20T11:56:25;3.35;;;1.95;;
41514;SDS011;27247;48.020;16.720;2023-07-20T12:00:37;6.40;;;2.10;;
41514;SDS011;27247;48.020;16.720;2023-07-20T12:04:49;4.30;;;2.50;;
41514;SDS011;27247;48.020;16.720;2023-07-20T12:09:00;5.82;;;2.45;;
41514;SDS011;27247;48.020;16.720;2023-07-20T12:13:10;4.28;;;2.30;;
41514;SDS011;27247;48.020;16.720;2023-07-20T12:17:24;2.47;;;2.28;;
41514;SDS011;27247;48.020;16.720;2023-07-20T12:21:34;7.87;;;2.10;;
41514;SDS011;27247;48.020;16.720;2023-07-20T12:25:50;7.25;;;2.53;;
41514;SDS011;27247;48.020;16.720;2023-07-20T12:30:02;8.50;;;2.40;;
41514;SDS011;27247;48.020;16.720;2023-07-20T12:34:14;5.13;;;2.30;;
41514;SDS011;27247;48.020;16.720;2023-07-20T12:38:25;3.72;;;2.28;;
41514;SDS011;27247;48.020;16.720;2023-07-20T12:42:37;4.57;;;2.20;;
41514;SDS011;27247;48.020;16.720;2023-07-20T12:46:48;4.13;;;2.00;;
41514;SDS011;27247;48.020;16.720;2023-07-20T12:50:58;5.47;;;2.33;;
41514;SDS011;27247;48.020;16.720;2023-07-20T12:55:09;4.97;;;2.30;;
41514;SDS011;27247;48.020;16.720;2023-07-20T12:59:20;3.67;;;1.75;;
41514;SDS011;27247;48.020;16.720;2023-07-20T13:03:30;5.28;;;2.30;;
41514;SDS011;27247;48.020;16.720;2023-07-20T13:07:41;4.47;;;1.83;;
41514;SDS011;27247;48.020;16.720;2023-07-20T13:11:51;4.75;;;2.33;;
41514;SDS011;27247;48.020;16.720;2023-07-20T13:16:02;4.75;;;2.30;;
41514;SDS011;27247;48.020;16.720;2023-07-20T13:20:13;8.10;;;1.70;;
41514;SDS011;27247;48.020;16.720;2023-07-20T13:24:23;3.35;;;1.92;;
41514;SDS011;27247;48.020;16.720;2023-07-20T13:28:34;2.77;;;1.90;;
41514;SDS011;27247;48.020;16.720;2023-07-20T13:32:44;3.07;;;2.00;;
41514;SDS011;27247;48.020;16.720;2023-07-20T13:36:55;2.80;;;1.60;;
41514;SDS011;27247;48.020;16.720;2023-07-20T13:41:05;2.30;;;1.60;;
41514;SDS011;27247;48.020;16.720;2023-07-20T13:45:16;2.08;;;1.60;;
41514;SDS011;27247;48.020;16.720;2023-07-20T13:49:26;4.07;;;1.73;;
41514;SDS011;27247;48.020;16.720;2023-07-20T13:53:38;6.25;;;2.25;;
41514;SDS011;27247;48.020;16.720;2023-07-20T13:57:48;2.67;;;1.75;;
41514;SDS011;27247;48.020;16.720;2023-07-20T14:01:58;3.05;;;2.05;;
41514;SDS011;27247;48.020;16.720;2023-07-20T14:06:09;3.67;;;1.97;;
41514;SDS011;27247;48.020;16.720;2023-07-20T14:10:19;4.22;;;1.67;;
41514;SDS011;27247;48.020;16.720;2023-07-20T14:14:30;3.33;;;1.52;;
41514;SDS011;27247;48.020;16.720;2023-07-20T14:18:40;2.83;;;1.97;;
41514;SDS011;27247;48.020;16.720;2023-07-20T14:22:50;5.13;;;1.92;;
41514;SDS011;27247;48.020;16.720;2023-07-20T14:27:01;3.17;;;1.80;;
41514;SDS011;27247;48.020;16.720;2023-07-20T14:31:11;2.17;;;1.60;;
41514;SDS011;27247;48.020;16.720;2023-07-20T14:35:22;2.72;;;1.90;;
41514;SDS011;27247;48.020;16.720;2023-07-20T14:39:32;3.37;;;1.80;;
41514;SDS011;27247;48.020;16.720;2023-07-20T14:43:43;4.30;;;1.70;;
41514;SDS011;27247;48.020;16.720;2023-07-20T14:47:53;3.75;;;2.17;;
41514;SDS011;27247;48.020;16.720;2023-07-20T14:52:04;3.30;;;2.37;;
41514;SDS011;27247;48.020;16.720;2023-07-20T14:56:15;4.53;;;2.35;;
41514;SDS011;27247;48.020;16.720;2023-07-20T15:00:25;10.93;;;2.20;;
41514;SDS011;27247;48.020;16.720;2023-07-20T15:04:35;4.95;;;2.25;;
41514;SDS011;27247;48.020;16.720;2023-07-20T15:08:46;9.00;;;2.17;;
41514;SDS011;27247;48.020;16.720;2023-07-20T15:12:56;6.85;;;2.85;;
41514;SDS011;27247;48.020;16.720;2023-07-20T15:17:06;9.20;;;1.93;;
41514;SDS011;27247;48.020;16.720;2023-07-20T15:21:17;6.20;;;2.28;;
41514;SDS011;27247;48.020;16.720;2023-07-20T15:25:28;8.45;;;2.60;;
41514;SDS011;27247;48.020;16.720;2023-07-20T15:29:38;5.70;;;2.85;;
41514;SDS011;27247;48.020;16.720;2023-07-20T15:33:49;7.07;;;3.27;;
41514;SDS011;27247;48.020;16.720;2023-07-20T15:37:59;5.90;;;2.67;;
41514;SDS011;27247;48.020;16.720;2023-07-20T15:42:10;4.45;;;2.42;;
41514;SDS011;27247;48.020;16.720;2023-07-20T15:50:30;4.60;;;2.40;;
41514;SDS011;27247;48.020;16.720;2023-07-20T15:54:41;3.30;;;2.30;;
41514;SDS011;27247;48.020;16.720;2023-07-20T15:58:51;4.63;;;2.17;;
41514;SDS011;27247;48.020;16.720;2023-07-20T16:03:01;4.33;;;2.30;;
41514;SDS011;27247;48.020;16.720;2023-07-20T16:07:12;4.53;;;2.10;;
41514;SDS011;27247;48.020;16.720;2023-07-20T16:11:22;3.03;;;1.98;;
41514;SDS011;27247;48.020;16.720;2023-07-20T16:15:33;4.03;;;2.10;;
41514;SDS011;27247;48.020;16.720;2023-07-20T16:19:43;5.63;;;1.87;;
41514;SDS011;27247;48.020;16.720;2023-07-20T16:23:54;5.75;;;2.22;;
41514;SDS011;27247;48.020;16.720;2023-07-20T16:28:04;2.95;;;1.83;;
41514;SDS011;27247;48.020;16.720;2023-07-20T16:32:15;4.90;;;1.92;;
41514;SDS011;27247;48.020;16.720;2023-07-20T16:36:26;3.03;;;2.28;;
41514;SDS011;27247;48.020;16.720;2023-07-20T16:40:37;5.40;;;2.30;;
41514;SDS011;27247;48.020;16.720;2023-07-20T16:44:49;3.72;;;1.73;;
41514;SDS011;27247;48.020;16.720;2023-07-20T16:49:00;3.47;;;1.95;;
41514;SDS011;27247;48.020;16.720;2023-07-20T16:53:19;4.57;;;1.98;;
41514;SDS011;27247;48.020;16.720;2023-07-20T16:57:29;4.70;;;1.80;;
41514;SDS011;27247;48.020;16.720;2023-07-20T17:01:39;3.50;;;1.97;;
41514;SDS011;27247;48.020;16.720;2023-07-20T17:05:50;2.90;;;1.90;;
41514;SDS011;27247;48.020;16.720;2023-07-20T17:10:00;3.50;;;1.87;;
41514;SDS011;27247;48.020;16.720;2023-07-20T17:14:11;5.75;;;1.80;;
41514;SDS011;27247;48.020;16.720;2023-07-20T17:18:22;4.75;;;1.95;;
41514;SDS011;27247;48.020;16.720;2023-07-20T17:22:32;8.67;;;2.23;;
41514;SDS011;27247;48.020;16.720;2023-07-20T17:26:42;15.90;;;2.87;;
41514;SDS011;27247;48.020;16.720;2023-07-20T17:30:57;5.20;;;2.00;;
41514;SDS011;27247;48.020;16.720;2023-07-20T17:35:08;10.95;;;3.00;;
41514;SDS011;27247;48.020;16.720;2023-07-20T17:39:23;5.57;;;2.83;;
41514;SDS011;27247;48.020;16.720;2023-07-20T17:43:33;9.85;;;2.60;;
41514;SDS011;27247;48.020;16.720;2023-07-20T17:47:44;3.17;;;1.98;;
41514;SDS011;27247;48.020;16.720;2023-07-20T17:51:54;6.47;;;2.13;;
41514;SDS011;27247;48.020;16.720;2023-07-20T17:56:05;5.00;;;1.80;;
41514;SDS011;27247;48.020;16.720;2023-07-20T18:00:16;4.00;;;1.88;;
41514;SDS011;27247;48.020;16.720;2023-07-20T18:04:27;4.93;;;2.45;;
41514;SDS011;27247;48.020;16.720;2023-07-20T18:08:38;11.35;;;2.45;;
41514;SDS011;27247;48.020;16.720;2023-07-20T18:12:51;6.97;;;2.20;;
41514;SDS011;27247;48.020;16.720;2023-07-20T18:17:02;5.15;;;2.17;;
41514;SDS011;27247;48.020;16.720;2023-07-20T18:21:15;3.10;;;2.13;;
41514;SDS011;27247;48.020;16.720;2023-07-20T18:25:26;5.07;;;1.90;;
41514;SDS011;27247;48.020;16.720;2023-07-20T18:29:37;3.22;;;1.83;;
41514;SDS011;27247;48.020;16.720;2023-07-20T18:33:48;8.52;;;2.45;;
41514;SDS011;27247;48.020;16.720;2023-07-20T18:37:59;18.10;;;3.17;;
41514;SDS011;27247;48.020;16.720;2023-07-20T18:42:10;22.88;;;3.67;;
41514;SDS011;27247;48.020;16.720;2023-07-20T18:46:21;16.75;;;2.85;;
41514;SDS011;27247;48.020;16.720;2023-07-20T18:50:33;13.15;;;2.45;;
41514;SDS011;27247;48.020;16.720;2023-07-20T18:54:44;9.45;;;2.20;;
41514;SDS011;27247;48.020;16.720;2023-07-20T18:58:54;5.10;;;1.95;;
41514;SDS011;27247;48.020;16.720;2023-07-20T19:03:05;4.10;;;2.10;;
41514;SDS011;27247;48.020;16.720;2023-07-20T19:07:15;6.00;;;2.50;;
41514;SDS011;27247;48.020;16.720;2023-07-20T19:11:26;6.28;;;1.92;;
41514;SDS011;27247;48.020;16.720;2023-07-20T19:15:37;5.22;;;2.63;;
41514;SDS011;27247;48.020;16.720;2023-07-20T19:19:48;16.40;;;2.85;;
41514;SDS011;27247;48.020;16.720;2023-07-20T19:23:58;5.00;;;2.30;;
41514;SDS011;27247;48.020;16.720;2023-07-20T19:28:09;7.13;;;2.10;;
41514;SDS011;27247;48.020;16.720;2023-07-20T19:32:20;4.00;;;1.85;;
41514;SDS011;27247;48.020;16.720;2023-07-20T19:36:32;6.68;;;2.47;;
41514;SDS011;27247;48.020;16.720;2023-07-20T19:40:44;5.90;;;2.40;;
41514;SDS011;27247;48.020;16.720;2023-07-20T19:44:56;5.93;;;2.33;;
41514;SDS011;27247;48.020;16.720;2023-07-20T19:49:07;5.93;;;2.33;;
41514;SDS011;27247;48.020;16.720;2023-07-20T19:53:18;7.65;;;2.75;;
41514;SDS011;27247;48.020;16.720;2023-07-20T19:57:28;11.73;;;2.53;;
41514;SDS011;27247;48.020;16.720;2023-07-20T20:01:39;6.57;;;2.88;;
41514;SDS011;27247;48.020;16.720;2023-07-20T20:05:50;5.68;;;2.10;;
41514;SDS011;27247;48.020;16.720;2023-07-20T20:10:01;7.22;;;2.72;;
41514;SDS011;27247;48.020;16.720;2023-07-20T20:14:14;4.13;;;2.00;;
41514;SDS011;27247;48.020;16.720;2023-07-20T20:18:25;10.27;;;2.58;;
41514;SDS011;27247;48.020;16.720;2023-07-20T20:22:40;4.93;;;1.88;;
41514;SDS011;27247;48.020;16.720;2023-07-20T20:26:51;3.47;;;2.25;;
41514;SDS011;27247;48.020;16.720;2023-07-20T20:31:05;5.75;;;2.17;;
41514;SDS011;27247;48.020;16.720;2023-07-20T20:35:16;9.35;;;2.65;;
41514;SDS011;27247;48.020;16.720;2023-07-20T20:39:27;3.60;;;2.20;;
41514;SDS011;27247;48.020;16.720;2023-07-20T20:43:38;3.70;;;2.08;;
41514;SDS011;27247;48.020;16.720;2023-07-20T20:47:48;10.55;;;2.88;;
41514;SDS011;27247;48.020;16.720;2023-07-20T20:52:00;14.65;;;3.35;;
41514;SDS011;27247;48.020;16.720;2023-07-20T20:56:10;7.67;;;2.73;;
41514;SDS011;27247;48.020;16.720;2023-07-20T21:00:21;8.82;;;3.00;;
41514;SDS011;27247;48.020;16.720;2023-07-20T21:04:33;12.23;;;3.20;;
41514;SDS011;27247;48.020;16.720;2023-07-20T21:08:43;8.35;;;2.85;;
41514;SDS011;27247;48.020;16.720;2023-07-20T21:12:53;14.73;;;3.20;;
41514;SDS011;27247;48.020;16.720;2023-07-20T21:17:04;3.67;;;2.40;;
41514;SDS011;27247;48.020;16.720;2023-07-20T21:21:14;14.88;;;2.80;;
41514;SDS011;27247;48.020;16.720;2023-07-20T21:25:25;10.82;;;2.92;;
41514;SDS011;27247;48.020;16.720;2023-07-20T21:29:35;18.00;;;3.23;;
41514;SDS011;27247;48.020;16.720;2023-07-20T21:33:45;11.05;;;3.55;;
41514;SDS011;27247;48.020;16.720;2023-07-20T21:37:56;15.10;;;4.20;;
41514;SDS011;27247;48.020;16.720;2023-07-20T21:42:06;16.67;;;3.73;;
41514;SDS011;27247;48.020;16.720;2023-07-20T21:46:16;14.35;;;3.50;;
41514;SDS011;27247;48.020;16.720;2023-07-20T21:50:27;12.60;;;3.30;;
41514;SDS011;27247;48.020;16.720;2023-07-20T21:54:37;6.00;;;2.40;;
41514;SDS011;27247;48.020;16.720;2023-07-20T21:58:47;12.67;;;3.23;;
41514;SDS011;27247;48.020;16.720;2023-07-20T22:02:58;9.00;;;2.75;;
41514;SDS011;27247;48.020;16.720;2023-07-20T22:07:08;6.70;;;2.53;;
41514;SDS011;27247;48.020;16.720;2023-07-20T22:11:23;8.52;;;2.47;;
41514;SDS011;27247;48.020;16.720;2023-07-20T22:15:34;7.55;;;3.08;;
41514;SDS011;27247;48.020;16.720;2023-07-20T22:19:45;9.32;;;2.90;;
41514;SDS011;27247;48.020;16.720;2023-07-20T22:23:55;7.20;;;2.90;;
41514;SDS011;27247;48.020;16.720;2023-07-20T22:28:05;7.25;;;2.95;;
41514;SDS011;27247;48.020;16.720;2023-07-20T22:32:16;6.00;;;2.88;;
41514;SDS011;27247;48.020;16.720;2023-07-20T22:36:27;11.38;;;3.30;;
41514;SDS011;27247;48.020;16.720;2023-07-20T22:40:37;7.37;;;3.20;;
41514;SDS011;27247;48.020;16.720;2023-07-20T22:44:48;13.73;;;4.80;;
41514;SDS011;27247;48.020;16.720;2023-07-20T22:48:58;8.07;;;3.38;;
41514;SDS011;27247;48.020;16.720;2023-07-20T22:53:09;8.73;;;3.63;;
41514;SDS011;27247;48.020;16.720;2023-07-20T22:57:19;11.30;;;3.03;;
41514;SDS011;27247;48.020;16.720;2023-07-20T23:01:30;4.43;;;2.20;;
41514;SDS011;27247;48.020;16.720;2023-07-20T23:05:40;4.47;;;2.95;;
41514;SDS011;27247;48.020;16.720;2023-07-20T23:09:50;4.65;;;2.25;;
41514;SDS011;27247;48.020;16.720;2023-07-20T23:14:01;5.97;;;2.70;;
41514;SDS011;27247;48.020;16.720;2023-07-20T23:18:11;3.80;;;2.43;;
41514;SDS011;27247;48.020;16.720;2023-07-20T23:22:22;6.68;;;2.50;;
41514;SDS011;27247;48.020;16.720;2023-07-20T23:26:33;8.82;;;2.90;;
41514;SDS011;27247;48.020;16.720;2023-07-20T23:30:46;7.97;;;3.22;;
41514;SDS011;27247;48.020;16.720;2023-07-20T23:34:59;6.28;;;3.28;;
41514;SDS011;27247;48.020;16.720;2023-07-20T23:39:10;6.63;;;2.63;;
41514;SDS011;27247;48.020;16.720;2023-07-20T23:43:20;10.57;;;3.20;;
41514;SDS011;27247;48.020;16.720;2023-07-20T23:47:30;7.63;;;2.70;;
41514;SDS011;27247;48.020;16.720;2023-07-20T23:51:42;4.82;;;2.40;;
41514;SDS011;27247;48.020;16.720;2023-07-20T23:55:52;3.72;;;2.40;;
